sensor_id;sensor_type;location;lat;lon;timestamp;P1;durP1;ratioP1;P2;durP2;ratioP2
68188;SDS011;66299;47.514;19.218;2024-03-22T07:50:12;32.50;;;19.17;;
68188;SDS011;66299;47.514;19.218;2024-03-22T07:52:41;29.20;;;18.75;;
68188;SDS011;66299;47.514;19.218;2024-03-22T07:55:08;30.95;;;18.23;;
68188;SDS011;66299;47.514;19.218;2024-03-22T07:57:35;30.00;;;17.70;;
68188;SDS011;66299;47.514;19.218;2024-03-22T08:00:02;32.58;;;17.52;;
68188;SDS011;66299;47.514;19.218;2024-03-22T08:02:30;35.78;;;18.83;;
68188;SDS011;66299;47.514;19.218;2024-03-22T08:04:56;37.42;;;17.63;;
68188;SDS011;66299;47.514;19.218;2024-03-22T08:07:25;31.08;;;18.88;;
68188;SDS011;66299;47.514;19.218;2024-03-22T08:09:54;34.28;;;17.33;;
68188;SDS011;66299;47.514;19.218;2024-03-22T08:12:21;28.88;;;17.90;;
68188;SDS011;66299;47.514;19.218;2024-03-22T08:14:49;30.98;;;18.55;;
68188;SDS011;66299;47.514;19.218;2024-03-22T08:17:15;27.63;;;17.38;;
68188;SDS011;66299;47.514;19.218;2024-03-22T08:19:43;30.42;;;17.65;;
68188;SDS011;66299;47.514;19.218;2024-03-22T08:22:10;29.58;;;17.42;;
68188;SDS011;66299;47.514;19.218;2024-03-22T08:24:42;33.83;;;18.17;;
68188;SDS011;66299;47.514;19.218;2024-03-22T08:27:09;31.88;;;17.65;;
68188;SDS011;66299;47.514;19.218;2024-03-22T08:29:37;33.10;;;18.05;;
68188;SDS011;66299;47.514;19.218;2024-03-22T08:32:04;30.75;;;18.27;;
68188;SDS011;66299;47.514;19.218;2024-03-22T08:34:31;28.85;;;18.02;;
68188;SDS011;66299;47.514;19.218;2024-03-22T08:36:58;29.65;;;17.67;;
68188;SDS011;66299;47.514;19.218;2024-03-22T08:39:26;32.35;;;17.92;;
68188;SDS011;66299;47.514;19.218;2024-03-22T08:41:54;29.88;;;17.35;;
68188;SDS011;66299;47.514;19.218;2024-03-22T08:44:21;27.75;;;17.70;;
68188;SDS011;66299;47.514;19.218;2024-03-22T08:46:48;32.63;;;17.50;;
68188;SDS011;66299;47.514;19.218;2024-03-22T08:49:17;31.52;;;17.80;;
68188;SDS011;66299;47.514;19.218;2024-03-22T08:51:45;31.25;;;16.63;;
68188;SDS011;66299;47.514;19.218;2024-03-22T08:54:14;28.65;;;16.80;;
68188;SDS011;66299;47.514;19.218;2024-03-22T08:56:41;30.00;;;17.02;;
68188;SDS011;66299;47.514;19.218;2024-03-22T08:59:10;28.42;;;16.60;;
68188;SDS011;66299;47.514;19.218;2024-03-22T09:01:37;29.88;;;16.73;;
68188;SDS011;66299;47.514;19.218;2024-03-22T09:04:04;27.75;;;16.60;;
68188;SDS011;66299;47.514;19.218;2024-03-22T09:06:31;30.30;;;16.67;;
68188;SDS011;66299;47.514;19.218;2024-03-22T09:08:58;32.55;;;17.25;;
68188;SDS011;66299;47.514;19.218;2024-03-22T09:11:24;25.42;;;15.90;;
68188;SDS011;66299;47.514;19.218;2024-03-22T09:13:52;28.33;;;16.90;;
68188;SDS011;66299;47.514;19.218;2024-03-22T09:16:20;26.15;;;15.75;;
68188;SDS011;66299;47.514;19.218;2024-03-22T09:18:47;28.80;;;17.30;;
68188;SDS011;66299;47.514;19.218;2024-03-22T09:21:16;32.85;;;16.98;;
68188;SDS011;66299;47.514;19.218;2024-03-22T09:23:44;28.67;;;16.67;;
68188;SDS011;66299;47.514;19.218;2024-03-22T09:26:11;34.90;;;17.55;;
68188;SDS011;66299;47.514;19.218;2024-03-22T09:28:40;31.38;;;16.52;;
68188;SDS011;66299;47.514;19.218;2024-03-22T09:31:08;30.88;;;16.38;;
68188;SDS011;66299;47.514;19.218;2024-03-22T09:33:37;28.42;;;16.25;;
68188;SDS011;66299;47.514;19.218;2024-03-22T09:36:03;31.60;;;15.82;;
68188;SDS011;66299;47.514;19.218;2024-03-22T09:38:31;25.02;;;14.65;;
68188;SDS011;66299;47.514;19.218;2024-03-22T09:40:58;26.10;;;15.02;;
68188;SDS011;66299;47.514;19.218;2024-03-22T09:43:27;27.17;;;15.07;;
68188;SDS011;66299;47.514;19.218;2024-03-22T09:45:55;27.20;;;15.35;;
68188;SDS011;66299;47.514;19.218;2024-03-22T09:48:23;25.25;;;15.25;;
68188;SDS011;66299;47.514;19.218;2024-03-22T09:50:52;24.02;;;13.82;;
68188;SDS011;66299;47.514;19.218;2024-03-22T09:53:21;25.80;;;14.60;;
68188;SDS011;66299;47.514;19.218;2024-03-22T09:55:49;24.38;;;14.15;;
68188;SDS011;66299;47.514;19.218;2024-03-22T09:58:17;29.05;;;14.43;;
68188;SDS011;66299;47.514;19.218;2024-03-22T10:00:44;31.58;;;15.43;;
68188;SDS011;66299;47.514;19.218;2024-03-22T10:03:11;23.17;;;13.05;;
68188;SDS011;66299;47.514;19.218;2024-03-22T10:05:37;25.17;;;13.27;;
68188;SDS011;66299;47.514;19.218;2024-03-22T10:08:06;25.92;;;15.30;;
68188;SDS011;66299;47.514;19.218;2024-03-22T10:10:34;24.67;;;14.13;;
68188;SDS011;66299;47.514;19.218;2024-03-22T10:13:02;27.70;;;14.65;;
68188;SDS011;66299;47.514;19.218;2024-03-22T10:15:32;24.48;;;14.93;;
68188;SDS011;66299;47.514;19.218;2024-03-22T10:17:59;24.83;;;14.40;;
68188;SDS011;66299;47.514;19.218;2024-03-22T10:20:26;23.73;;;15.23;;
68188;SDS011;66299;47.514;19.218;2024-03-22T10:22:55;23.02;;;13.63;;
68188;SDS011;66299;47.514;19.218;2024-03-22T10:25:25;28.73;;;15.07;;
68188;SDS011;66299;47.514;19.218;2024-03-22T10:27:53;24.92;;;13.20;;
68188;SDS011;66299;47.514;19.218;2024-03-22T10:30:20;26.08;;;14.25;;
68188;SDS011;66299;47.514;19.218;2024-03-22T10:32:49;23.10;;;13.55;;
68188;SDS011;66299;47.514;19.218;2024-03-22T10:35:16;22.60;;;13.48;;
68188;SDS011;66299;47.514;19.218;2024-03-22T10:37:44;22.67;;;12.55;;
68188;SDS011;66299;47.514;19.218;2024-03-22T10:40:11;22.42;;;13.25;;
68188;SDS011;66299;47.514;19.218;2024-03-22T10:42:41;21.92;;;12.35;;
68188;SDS011;66299;47.514;19.218;2024-03-22T10:45:10;24.55;;;12.90;;
68188;SDS011;66299;47.514;19.218;2024-03-22T10:47:40;24.58;;;13.40;;
68188;SDS011;66299;47.514;19.218;2024-03-22T10:50:07;22.75;;;12.68;;
68188;SDS011;66299;47.514;19.218;2024-03-22T10:52:37;19.52;;;11.38;;
68188;SDS011;66299;47.514;19.218;2024-03-22T10:55:10;23.27;;;13.02;;
68188;SDS011;66299;47.514;19.218;2024-03-22T10:57:45;23.55;;;12.82;;
68188;SDS011;66299;47.514;19.218;2024-03-22T11:00:12;25.40;;;13.00;;
68188;SDS011;66299;47.514;19.218;2024-03-22T11:02:42;25.15;;;12.63;;
68188;SDS011;66299;47.514;19.218;2024-03-22T11:05:15;20.00;;;13.13;;
68188;SDS011;66299;47.514;19.218;2024-03-22T11:07:44;24.25;;;12.90;;
68188;SDS011;66299;47.514;19.218;2024-03-22T11:10:11;24.00;;;13.27;;
68188;SDS011;66299;47.514;19.218;2024-03-22T11:12:39;21.35;;;13.30;;
68188;SDS011;66299;47.514;19.218;2024-03-22T11:15:07;22.20;;;13.25;;
68188;SDS011;66299;47.514;19.218;2024-03-22T11:17:38;23.13;;;12.55;;
68188;SDS011;66299;47.514;19.218;2024-03-22T11:20:05;22.02;;;12.43;;
68188;SDS011;66299;47.514;19.218;2024-03-22T11:22:32;28.90;;;13.45;;
68188;SDS011;66299;47.514;19.218;2024-03-22T11:25:01;21.65;;;12.07;;
68188;SDS011;66299;47.514;19.218;2024-03-22T11:27:27;20.48;;;12.43;;
68188;SDS011;66299;47.514;19.218;2024-03-22T11:29:55;20.58;;;11.52;;
68188;SDS011;66299;47.514;19.218;2024-03-22T11:32:24;19.33;;;11.35;;
68188;SDS011;66299;47.514;19.218;2024-03-22T11:34:54;21.33;;;10.90;;
68188;SDS011;66299;47.514;19.218;2024-03-22T11:37:20;18.48;;;10.57;;
68188;SDS011;66299;47.514;19.218;2024-03-22T11:39:48;17.20;;;10.23;;
68188;SDS011;66299;47.514;19.218;2024-03-22T11:42:16;21.77;;;9.55;;
68188;SDS011;66299;47.514;19.218;2024-03-22T11:44:44;19.92;;;10.20;;
68188;SDS011;66299;47.514;19.218;2024-03-22T11:47:11;17.52;;;10.18;;
68188;SDS011;66299;47.514;19.218;2024-03-22T11:49:40;16.33;;;9.07;;
68188;SDS011;66299;47.514;19.218;2024-03-22T11:52:07;17.98;;;10.80;;
68188;SDS011;66299;47.514;19.218;2024-03-22T11:54:35;18.67;;;10.40;;
68188;SDS011;66299;47.514;19.218;2024-03-22T11:57:02;17.55;;;10.15;;
68188;SDS011;66299;47.514;19.218;2024-03-22T11:59:29;15.52;;;8.75;;
68188;SDS011;66299;47.514;19.218;2024-03-22T12:01:56;16.05;;;7.90;;
68188;SDS011;66299;47.514;19.218;2024-03-22T12:04:24;15.13;;;7.05;;
68188;SDS011;66299;47.514;19.218;2024-03-22T12:06:52;15.05;;;7.97;;
68188;SDS011;66299;47.514;19.218;2024-03-22T12:09:23;18.20;;;7.97;;
68188;SDS011;66299;47.514;19.218;2024-03-22T12:11:51;15.45;;;8.48;;
68188;SDS011;66299;47.514;19.218;2024-03-22T12:14:18;16.13;;;8.57;;
68188;SDS011;66299;47.514;19.218;2024-03-22T12:16:44;15.60;;;7.40;;
68188;SDS011;66299;47.514;19.218;2024-03-22T12:19:12;18.50;;;9.20;;
68188;SDS011;66299;47.514;19.218;2024-03-22T12:21:39;18.55;;;9.60;;
68188;SDS011;66299;47.514;19.218;2024-03-22T12:24:08;15.45;;;8.60;;
68188;SDS011;66299;47.514;19.218;2024-03-22T12:26:34;17.98;;;9.90;;
68188;SDS011;66299;47.514;19.218;2024-03-22T12:29:01;19.33;;;9.85;;
68188;SDS011;66299;47.514;19.218;2024-03-22T12:31:28;16.80;;;9.18;;
68188;SDS011;66299;47.514;19.218;2024-03-22T12:33:55;17.63;;;8.38;;
68188;SDS011;66299;47.514;19.218;2024-03-22T12:36:22;16.38;;;8.18;;
68188;SDS011;66299;47.514;19.218;2024-03-22T12:38:50;19.42;;;8.52;;
68188;SDS011;66299;47.514;19.218;2024-03-22T12:41:19;15.88;;;8.40;;
68188;SDS011;66299;47.514;19.218;2024-03-22T12:43:46;17.17;;;8.32;;
68188;SDS011;66299;47.514;19.218;2024-03-22T12:46:13;17.80;;;8.65;;
68188;SDS011;66299;47.514;19.218;2024-03-22T12:48:41;16.83;;;8.75;;
68188;SDS011;66299;47.514;19.218;2024-03-22T12:51:08;19.30;;;9.80;;
68188;SDS011;66299;47.514;19.218;2024-03-22T12:53:36;17.63;;;9.98;;
68188;SDS011;66299;47.514;19.218;2024-03-22T12:56:03;17.02;;;9.40;;
68188;SDS011;66299;47.514;19.218;2024-03-22T12:58:32;17.90;;;9.93;;
68188;SDS011;66299;47.514;19.218;2024-03-22T13:00:59;20.77;;;10.65;;
68188;SDS011;66299;47.514;19.218;2024-03-22T13:03:27;17.88;;;9.85;;
68188;SDS011;66299;47.514;19.218;2024-03-22T13:05:55;20.58;;;11.48;;
68188;SDS011;66299;47.514;19.218;2024-03-22T13:08:23;19.98;;;10.73;;
68188;SDS011;66299;47.514;19.218;2024-03-22T13:10:49;19.92;;;12.07;;
68188;SDS011;66299;47.514;19.218;2024-03-22T13:13:18;18.60;;;11.25;;
68188;SDS011;66299;47.514;19.218;2024-03-22T13:15:46;17.55;;;10.15;;
68188;SDS011;66299;47.514;19.218;2024-03-22T13:18:13;19.88;;;11.38;;
68188;SDS011;66299;47.514;19.218;2024-03-22T13:20:40;20.23;;;11.85;;
68188;SDS011;66299;47.514;19.218;2024-03-22T13:23:08;19.13;;;12.15;;
68188;SDS011;66299;47.514;19.218;2024-03-22T13:25:36;21.17;;;11.13;;
68188;SDS011;66299;47.514;19.218;2024-03-22T13:28:03;16.90;;;10.13;;
68188;SDS011;66299;47.514;19.218;2024-03-22T13:30:31;16.30;;;9.68;;
68188;SDS011;66299;47.514;19.218;2024-03-22T13:33:02;19.00;;;10.40;;
68188;SDS011;66299;47.514;19.218;2024-03-22T13:35:29;18.20;;;10.10;;
68188;SDS011;66299;47.514;19.218;2024-03-22T13:37:59;16.95;;;9.85;;
68188;SDS011;66299;47.514;19.218;2024-03-22T13:40:26;16.92;;;9.85;;
68188;SDS011;66299;47.514;19.218;2024-03-22T13:42:53;18.98;;;9.70;;
68188;SDS011;66299;47.514;19.218;2024-03-22T13:45:22;15.07;;;7.85;;
68188;SDS011;66299;47.514;19.218;2024-03-22T13:47:51;16.35;;;8.60;;
68188;SDS011;66299;47.514;19.218;2024-03-22T13:50:19;17.15;;;10.05;;
68188;SDS011;66299;47.514;19.218;2024-03-22T13:52:48;18.95;;;10.10;;
68188;SDS011;66299;47.514;19.218;2024-03-22T13:55:15;18.42;;;9.73;;
68188;SDS011;66299;47.514;19.218;2024-03-22T13:57:44;20.63;;;11.18;;
68188;SDS011;66299;47.514;19.218;2024-03-22T14:00:10;18.50;;;10.32;;
68188;SDS011;66299;47.514;19.218;2024-03-22T14:02:40;17.90;;;11.00;;
68188;SDS011;66299;47.514;19.218;2024-03-22T14:05:07;18.67;;;9.07;;
68188;SDS011;66299;47.514;19.218;2024-03-22T14:07:36;17.33;;;9.77;;
68188;SDS011;66299;47.514;19.218;2024-03-22T14:10:06;19.70;;;10.77;;
68188;SDS011;66299;47.514;19.218;2024-03-22T14:12:34;18.52;;;10.43;;
68188;SDS011;66299;47.514;19.218;2024-03-22T14:15:01;18.02;;;10.57;;
68188;SDS011;66299;47.514;19.218;2024-03-22T14:17:28;17.30;;;10.30;;
68188;SDS011;66299;47.514;19.218;2024-03-22T14:19:55;16.00;;;9.20;;
68188;SDS011;66299;47.514;19.218;2024-03-22T14:22:22;18.98;;;10.52;;
68188;SDS011;66299;47.514;19.218;2024-03-22T14:24:51;18.42;;;9.85;;
68188;SDS011;66299;47.514;19.218;2024-03-22T14:27:18;20.10;;;10.60;;
68188;SDS011;66299;47.514;19.218;2024-03-22T14:29:45;18.77;;;10.82;;
68188;SDS011;66299;47.514;19.218;2024-03-22T14:32:14;19.80;;;11.05;;
68188;SDS011;66299;47.514;19.218;2024-03-22T14:34:40;22.52;;;11.70;;
68188;SDS011;66299;47.514;19.218;2024-03-22T14:37:09;19.65;;;9.43;;
68188;SDS011;66299;47.514;19.218;2024-03-22T14:39:38;16.90;;;9.65;;
68188;SDS011;66299;47.514;19.218;2024-03-22T14:42:10;17.73;;;9.00;;
68188;SDS011;66299;47.514;19.218;2024-03-22T14:44:36;15.80;;;8.73;;
68188;SDS011;66299;47.514;19.218;2024-03-22T14:47:04;15.95;;;8.50;;
68188;SDS011;66299;47.514;19.218;2024-03-22T14:49:30;16.85;;;8.32;;
68188;SDS011;66299;47.514;19.218;2024-03-22T14:51:58;16.77;;;7.68;;
68188;SDS011;66299;47.514;19.218;2024-03-22T14:54:25;15.75;;;8.68;;
68188;SDS011;66299;47.514;19.218;2024-03-22T14:56:52;17.45;;;9.00;;
68188;SDS011;66299;47.514;19.218;2024-03-22T14:59:21;14.98;;;8.68;;
68188;SDS011;66299;47.514;19.218;2024-03-22T15:01:49;15.80;;;8.30;;
68188;SDS011;66299;47.514;19.218;2024-03-22T15:04:15;16.95;;;8.52;;
68188;SDS011;66299;47.514;19.218;2024-03-22T15:06:43;18.02;;;8.82;;
68188;SDS011;66299;47.514;19.218;2024-03-22T15:09:11;15.98;;;8.68;;
68188;SDS011;66299;47.514;19.218;2024-03-22T15:11:40;14.75;;;8.32;;
68188;SDS011;66299;47.514;19.218;2024-03-22T15:14:07;15.52;;;9.05;;
68188;SDS011;66299;47.514;19.218;2024-03-22T15:16:36;14.20;;;8.13;;
68188;SDS011;66299;47.514;19.218;2024-03-22T15:19:03;17.10;;;8.48;;
68188;SDS011;66299;47.514;19.218;2024-03-22T15:21:31;16.63;;;8.93;;
68188;SDS011;66299;47.514;19.218;2024-03-22T15:23:59;18.38;;;9.15;;
68188;SDS011;66299;47.514;19.218;2024-03-22T15:26:31;16.95;;;8.75;;
68188;SDS011;66299;47.514;19.218;2024-03-22T15:28:57;14.77;;;8.23;;
68188;SDS011;66299;47.514;19.218;2024-03-22T15:31:25;16.83;;;9.40;;
68188;SDS011;66299;47.514;19.218;2024-03-22T15:33:55;16.48;;;8.50;;
68188;SDS011;66299;47.514;19.218;2024-03-22T15:36:22;17.48;;;8.90;;
68188;SDS011;66299;47.514;19.218;2024-03-22T15:38:49;18.50;;;8.60;;
68188;SDS011;66299;47.514;19.218;2024-03-22T15:41:18;14.43;;;7.50;;
68188;SDS011;66299;47.514;19.218;2024-03-22T15:43:47;16.95;;;7.97;;
68188;SDS011;66299;47.514;19.218;2024-03-22T15:46:15;16.50;;;8.77;;
68188;SDS011;66299;47.514;19.218;2024-03-22T15:48:42;17.90;;;8.60;;
68188;SDS011;66299;47.514;19.218;2024-03-22T15:51:12;15.40;;;8.50;;
68188;SDS011;66299;47.514;19.218;2024-03-22T15:53:39;15.73;;;7.78;;
68188;SDS011;66299;47.514;19.218;2024-03-22T15:56:07;15.73;;;8.60;;
68188;SDS011;66299;47.514;19.218;2024-03-22T15:58:34;14.38;;;7.45;;
68188;SDS011;66299;47.514;19.218;2024-03-22T16:01:02;14.80;;;7.40;;
68188;SDS011;66299;47.514;19.218;2024-03-22T16:03:30;13.98;;;6.97;;
68188;SDS011;66299;47.514;19.218;2024-03-22T16:05:57;22.92;;;6.95;;
68188;SDS011;66299;47.514;19.218;2024-03-22T16:08:26;13.55;;;6.82;;
68188;SDS011;66299;47.514;19.218;2024-03-22T16:10:54;12.00;;;6.38;;
68188;SDS011;66299;47.514;19.218;2024-03-22T16:13:21;15.45;;;6.50;;
68188;SDS011;66299;47.514;19.218;2024-03-22T16:15:48;14.35;;;7.03;;
68188;SDS011;66299;47.514;19.218;2024-03-22T16:18:15;14.90;;;6.53;;
68188;SDS011;66299;47.514;19.218;2024-03-22T16:20:42;14.20;;;6.82;;
68188;SDS011;66299;47.514;19.218;2024-03-22T16:23:10;12.90;;;6.78;;
68188;SDS011;66299;47.514;19.218;2024-03-22T16:25:39;13.73;;;6.85;;
68188;SDS011;66299;47.514;19.218;2024-03-22T16:28:07;14.80;;;7.57;;
68188;SDS011;66299;47.514;19.218;2024-03-22T16:30:34;15.25;;;7.00;;
68188;SDS011;66299;47.514;19.218;2024-03-22T16:33:00;15.85;;;8.13;;
68188;SDS011;66299;47.514;19.218;2024-03-22T16:35:28;17.38;;;7.70;;
68188;SDS011;66299;47.514;19.218;2024-03-22T16:37:56;14.18;;;7.50;;
68188;SDS011;66299;47.514;19.218;2024-03-22T16:40:24;16.00;;;7.63;;
68188;SDS011;66299;47.514;19.218;2024-03-22T16:42:52;15.93;;;8.95;;
68188;SDS011;66299;47.514;19.218;2024-03-22T16:45:20;19.35;;;8.15;;
68188;SDS011;66299;47.514;19.218;2024-03-22T16:47:46;16.70;;;8.23;;
68188;SDS011;66299;47.514;19.218;2024-03-22T16:50:15;15.77;;;8.45;;
68188;SDS011;66299;47.514;19.218;2024-03-22T16:52:41;17.33;;;8.70;;
68188;SDS011;66299;47.514;19.218;2024-03-22T16:55:09;15.52;;;8.68;;
68188;SDS011;66299;47.514;19.218;2024-03-22T16:57:37;17.17;;;9.07;;
68188;SDS011;66299;47.514;19.218;2024-03-22T17:00:07;16.90;;;8.90;;
68188;SDS011;66299;47.514;19.218;2024-03-22T17:02:35;17.80;;;8.77;;
68188;SDS011;66299;47.514;19.218;2024-03-22T17:05:03;14.85;;;8.00;;
68188;SDS011;66299;47.514;19.218;2024-03-22T17:07:31;17.77;;;8.65;;
68188;SDS011;66299;47.514;19.218;2024-03-22T17:10:00;15.93;;;9.20;;
68188;SDS011;66299;47.514;19.218;2024-03-22T17:12:27;16.95;;;8.98;;
68188;SDS011;66299;47.514;19.218;2024-03-22T17:14:54;14.45;;;7.82;;
68188;SDS011;66299;47.514;19.218;2024-03-22T17:17:22;13.73;;;7.20;;
68188;SDS011;66299;47.514;19.218;2024-03-22T17:19:49;15.10;;;6.95;;
68188;SDS011;66299;47.514;19.218;2024-03-22T17:22:16;14.95;;;7.20;;
68188;SDS011;66299;47.514;19.218;2024-03-22T17:24:44;13.98;;;7.30;;
68188;SDS011;66299;47.514;19.218;2024-03-22T17:27:11;13.57;;;6.93;;
68188;SDS011;66299;47.514;19.218;2024-03-22T17:29:40;16.27;;;7.30;;
68188;SDS011;66299;47.514;19.218;2024-03-22T17:32:06;14.82;;;7.60;;
68188;SDS011;66299;47.514;19.218;2024-03-22T17:34:35;16.52;;;7.70;;
68188;SDS011;66299;47.514;19.218;2024-03-22T17:37:03;16.25;;;7.70;;
68188;SDS011;66299;47.514;19.218;2024-03-22T17:39:31;14.82;;;7.65;;
68188;SDS011;66299;47.514;19.218;2024-03-22T17:41:57;16.83;;;7.35;;
68188;SDS011;66299;47.514;19.218;2024-03-22T17:44:27;14.68;;;7.80;;
68188;SDS011;66299;47.514;19.218;2024-03-22T17:46:54;16.23;;;7.55;;
68188;SDS011;66299;47.514;19.218;2024-03-22T17:49:21;14.40;;;7.55;;
68188;SDS011;66299;47.514;19.218;2024-03-22T17:51:51;14.02;;;7.32;;
68188;SDS011;66299;47.514;19.218;2024-03-22T17:54:19;14.45;;;7.50;;
68188;SDS011;66299;47.514;19.218;2024-03-22T17:56:45;14.32;;;7.75;;
68188;SDS011;66299;47.514;19.218;2024-03-22T17:59:14;16.20;;;7.97;;
68188;SDS011;66299;47.514;19.218;2024-03-22T18:01:42;16.38;;;8.80;;
68188;SDS011;66299;47.514;19.218;2024-03-22T18:04:10;16.92;;;9.10;;
68188;SDS011;66299;47.514;19.218;2024-03-22T18:06:38;16.27;;;8.63;;
68188;SDS011;66299;47.514;19.218;2024-03-22T18:09:09;17.08;;;9.13;;
68188;SDS011;66299;47.514;19.218;2024-03-22T18:11:36;19.20;;;9.15;;
68188;SDS011;66299;47.514;19.218;2024-03-22T18:14:04;21.92;;;9.02;;
68188;SDS011;66299;47.514;19.218;2024-03-22T18:16:32;18.55;;;9.38;;
68188;SDS011;66299;47.514;19.218;2024-03-22T18:19:01;18.40;;;8.85;;
68188;SDS011;66299;47.514;19.218;2024-03-22T18:21:29;15.52;;;8.88;;
68188;SDS011;66299;47.514;19.218;2024-03-22T18:23:57;21.70;;;9.45;;
68188;SDS011;66299;47.514;19.218;2024-03-22T18:26:24;19.20;;;9.75;;
68188;SDS011;66299;47.514;19.218;2024-03-22T18:28:53;21.10;;;10.40;;
68188;SDS011;66299;47.514;19.218;2024-03-22T18:31:20;17.70;;;9.68;;
68188;SDS011;66299;47.514;19.218;2024-03-22T18:33:48;22.80;;;10.68;;
68188;SDS011;66299;47.514;19.218;2024-03-22T18:36:15;21.85;;;10.55;;
68188;SDS011;66299;47.514;19.218;2024-03-22T18:38:42;20.40;;;10.48;;
68188;SDS011;66299;47.514;19.218;2024-03-22T18:41:08;20.02;;;10.43;;
68188;SDS011;66299;47.514;19.218;2024-03-22T18:43:37;19.38;;;10.70;;
68188;SDS011;66299;47.514;19.218;2024-03-22T18:46:04;23.17;;;11.10;;
68188;SDS011;66299;47.514;19.218;2024-03-22T18:48:31;21.35;;;11.13;;
68188;SDS011;66299;47.514;19.218;2024-03-22T18:51:04;24.38;;;10.68;;
68188;SDS011;66299;47.514;19.218;2024-03-22T18:53:32;24.33;;;11.55;;
68188;SDS011;66299;47.514;19.218;2024-03-22T18:55:58;21.05;;;11.38;;
68188;SDS011;66299;47.514;19.218;2024-03-22T18:58:26;32.15;;;16.67;;
68188;SDS011;66299;47.514;19.218;2024-03-22T19:00:54;29.38;;;17.50;;
68188;SDS011;66299;47.514;19.218;2024-03-22T19:03:21;29.08;;;15.85;;
68188;SDS011;66299;47.514;19.218;2024-03-22T19:05:48;29.73;;;16.55;;
68188;SDS011;66299;47.514;19.218;2024-03-22T19:08:16;28.73;;;16.00;;
68188;SDS011;66299;47.514;19.218;2024-03-22T19:10:42;24.48;;;13.45;;
68188;SDS011;66299;47.514;19.218;2024-03-22T19:13:10;26.75;;;13.68;;
68188;SDS011;66299;47.514;19.218;2024-03-22T19:15:36;25.77;;;12.82;;
68188;SDS011;66299;47.514;19.218;2024-03-22T19:18:10;22.88;;;11.18;;
68188;SDS011;66299;47.514;19.218;2024-03-22T19:20:39;19.55;;;9.82;;
68188;SDS011;66299;47.514;19.218;2024-03-22T19:23:09;20.23;;;9.77;;
68188;SDS011;66299;47.514;19.218;2024-03-22T19:25:37;23.00;;;10.07;;
68188;SDS011;66299;47.514;19.218;2024-03-22T19:28:06;19.05;;;9.98;;
68188;SDS011;66299;47.514;19.218;2024-03-22T19:30:35;18.40;;;11.20;;
68188;SDS011;66299;47.514;19.218;2024-03-22T19:33:02;23.45;;;10.98;;
68188;SDS011;66299;47.514;19.218;2024-03-22T19:35:30;22.67;;;12.82;;
68188;SDS011;66299;47.514;19.218;2024-03-22T19:37:58;23.90;;;13.18;;
68188;SDS011;66299;47.514;19.218;2024-03-22T19:40:25;25.80;;;14.55;;
68188;SDS011;66299;47.514;19.218;2024-03-22T19:42:53;23.05;;;13.68;;
68188;SDS011;66299;47.514;19.218;2024-03-22T19:45:19;24.98;;;13.70;;
68188;SDS011;66299;47.514;19.218;2024-03-22T19:47:49;26.38;;;13.93;;
68188;SDS011;66299;47.514;19.218;2024-03-22T19:50:16;26.13;;;13.63;;
68188;SDS011;66299;47.514;19.218;2024-03-22T19:52:46;27.58;;;13.50;;
68188;SDS011;66299;47.514;19.218;2024-03-22T19:55:14;25.58;;;14.13;;
68188;SDS011;66299;47.514;19.218;2024-03-22T19:57:42;29.63;;;14.50;;
68188;SDS011;66299;47.514;19.218;2024-03-22T20:00:09;26.40;;;14.80;;
68188;SDS011;66299;47.514;19.218;2024-03-22T20:02:38;27.38;;;15.27;;
68188;SDS011;66299;47.514;19.218;2024-03-22T20:05:06;28.25;;;15.93;;
68188;SDS011;66299;47.514;19.218;2024-03-22T20:07:33;36.35;;;18.70;;
68188;SDS011;66299;47.514;19.218;2024-03-22T20:10:03;36.72;;;19.30;;
68188;SDS011;66299;47.514;19.218;2024-03-22T20:12:32;40.70;;;21.80;;
68188;SDS011;66299;47.514;19.218;2024-03-22T20:14:59;41.20;;;23.50;;
68188;SDS011;66299;47.514;19.218;2024-03-22T20:17:27;47.50;;;25.38;;
68188;SDS011;66299;47.514;19.218;2024-03-22T20:19:55;48.65;;;27.25;;
68188;SDS011;66299;47.514;19.218;2024-03-22T20:22:23;49.13;;;27.10;;
68188;SDS011;66299;47.514;19.218;2024-03-22T20:24:51;51.58;;;27.88;;
68188;SDS011;66299;47.514;19.218;2024-03-22T20:27:19;51.97;;;29.25;;
68188;SDS011;66299;47.514;19.218;2024-03-22T20:29:46;57.17;;;31.95;;
68188;SDS011;66299;47.514;19.218;2024-03-22T20:32:14;54.85;;;32.10;;
68188;SDS011;66299;47.514;19.218;2024-03-22T20:34:41;73.03;;;39.10;;
68188;SDS011;66299;47.514;19.218;2024-03-22T20:37:08;75.85;;;41.40;;
